Armington, Montana
Current Conditions -  °F | °C
As of 4:56 PM on Monday 22 Dec 2014 (Local Time) from KGFA Reporting Station
Overcast Overcast  
Wind Chill: 26°   Ceiling: 8000
Heat Index: 35°   Visibility: 10mi
Dew Point: 27°   Wind: 13mph
Humidity: 73%   Direction: 320°NW
Pressure: 30.05"   Gusts: NA
Location:  47.3298°N, 110.893°W
Report Text: KGFA 222356Z AUTO 32011KT 10SM OVC080 02/M03 A3005 RMK AO2 SLP205 T00151029 10049 20015 52035
Loading
Personal Weather Stations






























Interactive Weather Map New forecast layout! Learn more

10-Day Weather Forecast

Advertisements
Track Severe Weather on mobile